createdAt,value
2023-03-21T00:00:33.950Z,12.20
2023-03-21T00:03:00.572Z,12.20
2023-03-21T00:05:27.050Z,12.21
2023-03-21T00:07:53.641Z,12.22
2023-03-21T00:10:32.982Z,12.23
2023-03-21T00:13:05.701Z,12.23
2023-03-21T00:15:42.651Z,12.24
2023-03-21T00:18:15.800Z,12.25
2023-03-21T00:20:47.329Z,12.24
2023-03-21T00:23:13.739Z,12.26
2023-03-21T00:25:40.314Z,12.26
2023-03-21T00:28:08.556Z,12.28
2023-03-21T00:30:35.412Z,12.27
2023-03-21T00:33:08.952Z,12.29
2023-03-21T00:36:12.467Z,12.32
2023-03-21T00:38:36.943Z,12.30
2023-03-21T00:41:17.690Z,12.33
2023-03-21T00:43:47.710Z,12.33
2023-03-21T00:46:14.220Z,12.35
2023-03-21T00:48:40.579Z,12.36
2023-03-21T00:51:21.412Z,12.38
2023-03-21T00:53:47.836Z,12.37
2023-03-21T00:56:14.161Z,12.38
2023-03-21T00:58:40.670Z,12.38
2023-03-21T01:01:09.525Z,12.38
2023-03-21T01:03:42.597Z,12.38
2023-03-21T01:06:13.747Z,12.39
2023-03-21T01:08:58.360Z,12.39
2023-03-21T01:11:28.336Z,12.40
2023-03-21T01:14:07.308Z,12.39
2023-03-21T01:16:37.786Z,12.39
2023-03-21T01:19:09.293Z,12.40
2023-03-21T01:21:41.190Z,12.39
2023-03-21T01:24:07.924Z,12.39
2023-03-21T01:26:34.453Z,12.39
2023-03-21T01:29:00.864Z,12.40
2023-03-21T01:31:27.287Z,12.41
2023-03-21T01:33:53.866Z,12.42
2023-03-21T01:36:23.988Z,12.43
2023-03-21T01:38:51.761Z,12.44
2023-03-21T01:41:41.897Z,12.45
2023-03-21T01:44:15.508Z,12.47
2023-03-21T01:47:03.647Z,12.45
2023-03-21T01:49:40.779Z,12.44
2023-03-21T01:52:23.549Z,12.45
2023-03-21T01:54:55.384Z,12.44
2023-03-21T01:57:40.394Z,12.43
2023-03-21T02:00:12.842Z,12.43
2023-03-21T02:02:58.238Z,12.44
2023-03-21T02:05:38.807Z,12.44
2023-03-21T02:08:05.584Z,12.43
2023-03-21T02:10:32.858Z,12.44
2023-03-21T02:13:09.319Z,12.45
2023-03-21T02:15:43.947Z,12.46
2023-03-21T02:18:33.319Z,12.45
2023-03-21T02:21:11.862Z,12.47
2023-03-21T02:24:12.576Z,12.46
2023-03-21T02:27:04.305Z,12.46
2023-03-21T02:29:58.988Z,12.46
2023-03-21T02:32:48.694Z,12.47
2023-03-21T02:35:23.906Z,12.48
2023-03-21T02:38:00.785Z,12.47
2023-03-21T02:40:38.067Z,12.47
2023-03-21T02:43:22.515Z,12.48
2023-03-21T02:45:57.939Z,12.49
2023-03-21T02:48:50.574Z,12.50
2023-03-21T02:51:21.076Z,12.49
2023-03-21T02:54:13.010Z,12.51
2023-03-21T02:56:41.370Z,12.50
2023-03-21T02:59:08.807Z,12.51
2023-03-21T03:01:35.919Z,12.50
2023-03-21T03:04:02.499Z,12.52
2023-03-21T03:06:47.779Z,12.54
2023-03-21T03:09:32.380Z,12.54
2023-03-21T03:12:16.575Z,12.57
2023-03-21T03:15:05.139Z,12.56
2023-03-21T03:17:52.657Z,12.56
2023-03-21T03:20:36.576Z,12.55
2023-03-21T03:23:25.999Z,12.54
2023-03-21T03:25:58.399Z,12.52
2023-03-21T03:28:35.508Z,12.51
2023-03-21T03:31:09.278Z,12.51
2023-03-21T03:33:40.837Z,12.49
2023-03-21T03:36:21.500Z,12.50
2023-03-21T03:38:56.322Z,12.50
2023-03-21T03:41:26.772Z,12.50
2023-03-21T03:43:56.346Z,12.50
2023-03-21T03:46:33.270Z,12.49
2023-03-21T03:49:11.938Z,12.49
2023-03-21T03:52:02.963Z,12.49
2023-03-21T03:54:38.340Z,12.48
2023-03-21T03:57:06.594Z,12.47
2023-03-21T03:59:37.225Z,12.48
2023-03-21T04:02:04.750Z,12.46
2023-03-21T04:04:31.731Z,12.43
2023-03-21T04:06:58.376Z,12.42
2023-03-21T04:09:42.704Z,12.41
2023-03-21T04:12:10.460Z,12.41
2023-03-21T04:14:44.479Z,12.40
2023-03-21T04:17:12.065Z,12.38
2023-03-21T04:19:38.502Z,12.37
2023-03-21T04:22:04.842Z,12.36
2023-03-21T04:24:33.781Z,12.33
2023-03-21T04:27:00.851Z,12.33
2023-03-21T04:29:29.550Z,12.32
2023-03-21T04:31:56.250Z,12.30
2023-03-21T04:34:23.990Z,12.30
2023-03-21T04:36:50.869Z,12.29
2023-03-21T04:39:18.300Z,12.30
2023-03-21T04:41:46.252Z,12.28
2023-03-21T04:44:14.409Z,12.28
2023-03-21T04:46:41.767Z,12.28
2023-03-21T04:49:08.311Z,12.28
2023-03-21T04:51:35.854Z,12.28
2023-03-21T04:54:02.316Z,12.27
2023-03-21T04:56:33.787Z,12.28
2023-03-21T04:59:09.718Z,12.28
2023-03-21T05:01:36.080Z,12.33
2023-03-21T05:04:04.401Z,12.34
2023-03-21T05:06:30.792Z,12.30
2023-03-21T05:09:01.664Z,12.31
2023-03-21T05:11:32.255Z,12.31
2023-03-21T05:13:59.534Z,12.31
2023-03-21T05:16:30.354Z,12.32
2023-03-21T05:18:59.071Z,12.33
2023-03-21T05:21:29.339Z,12.35
2023-03-21T05:23:58.210Z,12.36
2023-03-21T05:26:25.115Z,12.36
2023-03-21T05:28:51.481Z,12.38
2023-03-21T05:31:19.258Z,12.41
2023-03-21T05:33:46.506Z,12.41
2023-03-21T05:36:13.813Z,12.42
2023-03-21T05:38:45.665Z,12.44
2023-03-21T05:41:14.004Z,12.45
2023-03-21T05:43:40.554Z,12.46
2023-03-21T05:46:07.614Z,12.48
2023-03-21T05:48:34.653Z,12.48
2023-03-21T05:51:01.984Z,12.48
2023-03-21T05:53:28.350Z,12.48
2023-03-21T05:55:54.771Z,12.49
2023-03-21T05:58:21.122Z,12.49
2023-03-21T06:00:47.623Z,12.48
2023-03-21T06:03:15.286Z,12.50
2023-03-21T06:05:41.639Z,12.48
2023-03-21T06:08:08.003Z,12.48
2023-03-21T06:10:34.404Z,12.48
2023-03-21T06:13:00.916Z,12.48
2023-03-21T06:15:27.364Z,12.48
2023-03-21T06:17:53.788Z,12.48
2023-03-21T06:20:20.147Z,12.48
2023-03-21T06:22:46.548Z,12.49
2023-03-21T06:25:12.921Z,12.50
2023-03-21T06:27:39.360Z,12.50
2023-03-21T06:30:06.780Z,12.51
2023-03-21T06:32:33.129Z,12.53
2023-03-21T06:34:59.581Z,12.55
2023-03-21T06:37:28.662Z,12.58
2023-03-21T06:39:55.673Z,12.59
2023-03-21T06:42:22.197Z,12.62
2023-03-21T06:44:48.753Z,12.63
2023-03-21T06:47:15.810Z,12.64
2023-03-21T06:49:43.636Z,12.64
2023-03-21T06:52:10.867Z,12.65
2023-03-21T06:54:37.344Z,12.65
2023-03-21T06:57:03.696Z,12.66
2023-03-21T06:59:30.129Z,12.67
2023-03-21T07:01:56.777Z,12.67
2023-03-21T07:04:23.199Z,12.68
2023-03-21T07:06:49.645Z,12.68
2023-03-21T07:09:17.910Z,12.68
2023-03-21T07:11:44.269Z,12.67
2023-03-21T07:14:10.595Z,12.67
2023-03-21T07:16:37.110Z,12.68
2023-03-21T07:19:04.300Z,12.67
2023-03-21T07:21:31.182Z,12.67
2023-03-21T07:23:57.696Z,12.68
2023-03-21T07:26:24.043Z,12.68
2023-03-21T07:28:50.508Z,12.68
2023-03-21T07:31:17.682Z,12.68
2023-03-21T07:33:44.082Z,12.69
2023-03-21T07:36:12.978Z,12.70
2023-03-21T07:38:41.026Z,12.71
2023-03-21T07:41:07.696Z,12.74
2023-03-21T07:43:34.758Z,12.76
2023-03-21T07:46:02.781Z,12.79
2023-03-21T07:48:29.813Z,12.80
2023-03-21T07:50:56.397Z,12.82
2023-03-21T07:53:23.107Z,12.84
2023-03-21T07:55:55.581Z,12.86
2023-03-21T07:58:23.401Z,12.89
2023-03-21T08:00:49.997Z,12.89
2023-03-21T08:03:16.769Z,12.92
2023-03-21T08:05:44.165Z,12.93
2023-03-21T08:08:11.001Z,12.94
2023-03-21T08:10:37.408Z,12.96
2023-03-21T08:13:04.146Z,12.97
2023-03-21T08:15:31.403Z,12.99
2023-03-21T08:17:59.369Z,13.00
2023-03-21T08:20:25.827Z,13.00
2023-03-21T08:22:52.332Z,13.01
2023-03-21T08:25:22.386Z,13.02
2023-03-21T08:27:49.266Z,13.00
2023-03-21T08:30:18.937Z,13.00
2023-03-21T08:32:45.617Z,13.01
2023-03-21T08:35:13.549Z,13.00
2023-03-21T08:37:41.303Z,13.01
2023-03-21T08:40:13.665Z,13.01
2023-03-21T08:42:41.433Z,13.02
2023-03-21T08:45:09.487Z,13.04
2023-03-21T08:47:36.039Z,13.07
2023-03-21T08:50:03.775Z,13.10
2023-03-21T08:52:30.255Z,13.16
2023-03-21T08:54:56.593Z,13.25
2023-03-21T08:57:23.171Z,13.31
2023-03-21T08:59:49.657Z,13.37
2023-03-21T09:02:17.392Z,13.45
2023-03-21T09:04:44.915Z,13.51
2023-03-21T09:07:17.073Z,13.57
2023-03-21T09:09:43.756Z,13.65
2023-03-21T09:12:11.257Z,13.70
2023-03-21T09:14:37.725Z,13.75
2023-03-21T09:17:04.197Z,13.80
2023-03-21T09:19:31.891Z,13.82
2023-03-21T09:21:58.699Z,13.86
2023-03-21T09:24:26.658Z,13.88
2023-03-21T09:26:53.197Z,13.90
2023-03-21T09:29:21.322Z,13.94
2023-03-21T09:31:48.329Z,13.96
2023-03-21T09:34:15.742Z,13.98
2023-03-21T09:36:44.122Z,13.99
2023-03-21T09:39:15.839Z,13.99
2023-03-21T09:41:57.839Z,14.02
2023-03-21T09:44:55.563Z,14.03
2023-03-21T09:47:34.695Z,14.08
2023-03-21T09:50:14.458Z,14.11
2023-03-21T09:53:01.079Z,14.15
2023-03-21T09:55:40.269Z,14.18
2023-03-21T09:58:09.894Z,14.21
2023-03-21T10:00:40.214Z,14.22
2023-03-21T10:03:20.186Z,14.23
2023-03-21T10:05:48.507Z,14.22
2023-03-21T10:08:27.169Z,14.23
2023-03-21T10:11:03.645Z,14.23
2023-03-21T10:13:34.055Z,14.23
2023-03-21T10:16:06.566Z,14.24
2023-03-21T10:18:33.373Z,14.26
2023-03-21T10:21:01.134Z,14.31
2023-03-21T10:23:41.881Z,14.36
2023-03-21T10:26:09.388Z,14.41
2023-03-21T10:28:52.442Z,14.46
2023-03-21T10:31:25.422Z,14.52
2023-03-21T10:33:54.935Z,14.54
2023-03-21T10:36:29.091Z,14.55
2023-03-21T10:39:16.070Z,14.58
2023-03-21T10:41:43.381Z,14.56
2023-03-21T10:44:16.693Z,14.55
2023-03-21T10:46:54.903Z,14.53
2023-03-21T10:49:21.730Z,14.50
2023-03-21T10:52:04.917Z,14.52
2023-03-21T10:54:35.541Z,14.49
2023-03-21T10:57:11.834Z,14.48
2023-03-21T10:59:49.353Z,14.46
2023-03-21T11:02:26.358Z,14.44
2023-03-21T11:04:55.645Z,14.40
2023-03-21T11:07:25.406Z,14.36
2023-03-21T11:09:58.961Z,14.36
2023-03-21T11:12:39.765Z,14.35
2023-03-21T11:15:15.283Z,14.34
2023-03-21T11:17:42.073Z,14.34
2023-03-21T11:20:11.327Z,14.36
2023-03-21T11:22:43.741Z,14.40
2023-03-21T11:25:22.887Z,14.45
2023-03-21T11:28:21.143Z,14.52
2023-03-21T11:30:56.709Z,14.58
2023-03-21T11:33:31.781Z,14.63
2023-03-21T11:39:49.918Z,14.77
2023-03-21T11:45:15.214Z,14.86
2023-03-21T11:47:42.054Z,14.89
2023-03-21T11:50:34.405Z,14.93
2023-03-21T11:53:20.842Z,14.97
2023-03-21T11:55:54.373Z,15.03
2023-03-21T11:59:04.859Z,15.05
2023-03-21T12:01:40.343Z,15.09
2023-03-21T12:04:31.888Z,15.13
2023-03-21T12:07:26.305Z,15.17
2023-03-21T12:10:01.631Z,15.17
2023-03-21T12:12:42.049Z,15.18
2023-03-21T12:15:55.602Z,15.19
2023-03-21T12:18:58.879Z,15.18
2023-03-21T12:22:03.067Z,15.13
2023-03-21T12:24:38.412Z,15.11
2023-03-21T12:27:36.945Z,15.09
2023-03-21T12:30:23.715Z,15.08
2023-03-21T12:33:02.001Z,15.07
2023-03-21T12:35:42.318Z,15.06
2023-03-21T12:38:28.423Z,15.08
2023-03-21T12:41:03.858Z,15.07
2023-03-21T12:43:55.657Z,15.08
2023-03-21T12:46:40.575Z,15.07
2023-03-21T12:49:18.126Z,15.07
2023-03-21T12:51:48.645Z,15.06
2023-03-21T12:54:25.131Z,15.10
2023-03-21T12:57:28.745Z,15.15
2023-03-21T13:00:13.887Z,15.25
2023-03-21T13:02:55.436Z,15.31
2023-03-21T13:05:33.407Z,15.41
2023-03-21T13:08:12.198Z,15.52
2023-03-21T13:10:40.246Z,15.59
2023-03-21T13:13:37.666Z,15.67
2023-03-21T13:16:33.324Z,15.76
2023-03-21T13:19:18.222Z,15.81
2023-03-21T13:22:07.200Z,15.90
2023-03-21T13:25:07.493Z,15.96
2023-03-21T13:27:36.624Z,15.99
2023-03-21T13:30:19.317Z,16.03
2023-03-21T13:32:49.706Z,16.05
2023-03-21T13:35:16.479Z,16.06
2023-03-21T13:37:51.857Z,16.08
2023-03-21T13:40:42.772Z,16.10
2023-03-21T13:43:31.690Z,16.10
2023-03-21T13:46:06.364Z,16.10
2023-03-21T13:48:59.745Z,16.09
2023-03-21T13:51:29.376Z,16.09
2023-03-21T13:54:02.966Z,16.08
2023-03-21T13:56:30.643Z,16.05
2023-03-21T13:59:03.359Z,16.04
2023-03-21T14:01:39.367Z,16.01
2023-03-21T14:04:16.644Z,15.98
2023-03-21T14:06:51.284Z,15.95
2023-03-21T14:09:36.138Z,15.90
2023-03-21T14:12:08.078Z,15.86
2023-03-21T14:14:41.812Z,15.82
2023-03-21T14:17:20.965Z,15.79
2023-03-21T14:19:52.717Z,15.76
2023-03-21T14:22:19.093Z,15.73
2023-03-21T14:24:54.769Z,15.72
2023-03-21T14:27:22.084Z,15.71
2023-03-21T14:29:51.273Z,15.73
2023-03-21T14:32:22.499Z,15.75
2023-03-21T14:34:49.366Z,15.76
2023-03-21T14:37:28.416Z,15.83
2023-03-21T14:40:06.369Z,15.87
2023-03-21T14:42:38.120Z,15.91
2023-03-21T14:45:17.174Z,15.94
2023-03-21T14:48:01.796Z,15.99
2023-03-21T14:50:34.727Z,16.01
2023-03-21T14:53:01.359Z,16.05
2023-03-21T14:55:28.622Z,16.08
2023-03-21T14:57:56.445Z,16.12
2023-03-21T15:00:29.159Z,16.16
2023-03-21T15:02:59.073Z,16.18
2023-03-21T15:05:31.345Z,16.20
2023-03-21T15:08:06.904Z,16.22
2023-03-21T15:10:33.535Z,16.26
2023-03-21T15:13:02.935Z,16.30
2023-03-21T15:15:31.684Z,16.32
2023-03-21T15:18:03.698Z,16.35
2023-03-21T15:20:33.908Z,16.39
2023-03-21T15:23:17.471Z,16.42
2023-03-21T15:25:45.238Z,16.43
2023-03-21T15:28:14.334Z,16.44
2023-03-21T15:30:48.838Z,16.44
2023-03-21T15:33:15.778Z,16.42
2023-03-21T15:35:54.024Z,16.41
2023-03-21T15:38:41.081Z,16.40
2023-03-21T15:41:15.590Z,16.37
2023-03-21T15:43:42.211Z,16.33
2023-03-21T15:46:42.691Z,16.31
2023-03-21T15:49:13.044Z,16.27
2023-03-21T15:51:42.884Z,16.22
2023-03-21T15:54:15.200Z,16.17
2023-03-21T15:56:46.424Z,16.12
2023-03-21T15:59:17.978Z,16.09
2023-03-21T16:01:49.121Z,16.07
2023-03-21T16:04:18.347Z,16.03
2023-03-21T16:07:00.198Z,16.01
2023-03-21T16:09:26.941Z,15.98
2023-03-21T16:11:58.825Z,15.97
2023-03-21T16:14:29.850Z,15.97
2023-03-21T16:16:58.940Z,15.97
2023-03-21T16:19:27.613Z,15.99
2023-03-21T16:21:53.959Z,16.04
2023-03-21T16:24:20.263Z,16.08
2023-03-21T16:26:50.712Z,16.16
2023-03-21T16:29:18.516Z,16.21
2023-03-21T16:31:47.508Z,16.30
2023-03-21T16:34:13.866Z,16.36
2023-03-21T16:36:43.203Z,16.40
2023-03-21T16:39:25.276Z,16.46
2023-03-21T16:41:52.012Z,16.46
2023-03-21T16:44:19.544Z,16.45
2023-03-21T16:46:47.249Z,16.42
2023-03-21T16:49:24.803Z,16.36
2023-03-21T16:51:52.150Z,16.27
2023-03-21T16:54:18.569Z,16.17
2023-03-21T16:56:51.771Z,16.08
2023-03-21T16:59:18.368Z,15.98
2023-03-21T17:01:48.729Z,15.90
2023-03-21T17:04:17.691Z,15.83
2023-03-21T17:06:50.038Z,15.78
2023-03-21T17:09:19.671Z,15.73
2023-03-21T17:11:46.120Z,15.67
2023-03-21T17:14:14.122Z,15.62
2023-03-21T17:16:42.827Z,15.57
2023-03-21T17:19:15.344Z,15.54
2023-03-21T17:21:41.976Z,15.50
2023-03-21T17:24:08.817Z,15.45
2023-03-21T17:26:36.582Z,15.42
2023-03-21T17:29:03.918Z,15.37
2023-03-21T17:31:36.836Z,15.33
2023-03-21T17:34:04.562Z,15.28
2023-03-21T17:36:34.797Z,15.24
2023-03-21T17:39:06.943Z,15.20
2023-03-21T17:41:33.530Z,15.17
2023-03-21T17:44:00.246Z,15.13
2023-03-21T17:46:29.075Z,15.11
2023-03-21T17:48:56.091Z,15.09
2023-03-21T17:51:26.016Z,15.06
2023-03-21T17:53:52.536Z,15.04
2023-03-21T17:56:27.891Z,15.03
2023-03-21T17:58:54.501Z,15.00
2023-03-21T18:01:21.221Z,14.99
2023-03-21T18:03:47.680Z,14.97
2023-03-21T18:06:17.529Z,14.97
2023-03-21T18:08:45.302Z,14.94
2023-03-21T18:11:15.286Z,14.93
2023-03-21T18:13:45.419Z,14.93
2023-03-21T18:16:14.996Z,14.91
2023-03-21T18:18:41.652Z,14.90
2023-03-21T18:21:10.662Z,14.88
2023-03-21T18:23:38.397Z,14.88
2023-03-21T18:26:06.485Z,14.87
2023-03-21T18:28:33.115Z,14.87
2023-03-21T18:31:19.278Z,14.87
2023-03-21T18:33:46.799Z,14.91
2023-03-21T18:36:16.790Z,14.90
2023-03-21T18:38:43.561Z,14.87
2023-03-21T18:41:10.477Z,14.85
2023-03-21T18:46:24.301Z,14.82
2023-03-21T18:48:51.771Z,14.80
2023-03-21T18:51:19.227Z,14.79
2023-03-21T18:53:45.803Z,14.77
2023-03-21T18:56:46.860Z,14.75
2023-03-21T18:58:59.286Z,14.74
2023-03-21T19:01:26.294Z,14.72
2023-03-21T19:04:16.476Z,14.70
2023-03-21T19:06:46.500Z,14.69
2023-03-21T19:09:14.467Z,14.65
2023-03-21T19:11:43.765Z,14.63
2023-03-21T19:14:11.547Z,14.57
2023-03-21T19:17:07.038Z,14.52
2023-03-21T19:19:27.100Z,14.45
2023-03-21T19:21:54.301Z,14.41
2023-03-21T19:24:27.641Z,14.36
2023-03-21T19:26:55.463Z,14.32
2023-03-21T19:29:22.100Z,14.30
2023-03-21T19:31:50.960Z,14.27
2023-03-21T19:34:18.683Z,14.25
2023-03-21T19:36:50.738Z,14.25
2023-03-21T19:39:21.898Z,14.25
2023-03-21T19:41:48.759Z,14.26
2023-03-21T19:44:15.363Z,14.26
2023-03-21T19:46:41.904Z,14.28
2023-03-21T19:49:08.236Z,14.28
2023-03-21T19:51:34.948Z,14.28
2023-03-21T19:54:04.354Z,14.29
2023-03-21T19:56:31.656Z,14.27
2023-03-21T19:58:58.754Z,14.27
2023-03-21T20:01:26.266Z,14.27
2023-03-21T20:03:53.121Z,14.27
2023-03-21T20:06:22.075Z,14.27
2023-03-21T20:11:34.784Z,14.32
2023-03-21T20:14:03.002Z,14.30
2023-03-21T20:16:34.943Z,14.30
2023-03-21T20:19:03.015Z,14.27
2023-03-21T20:21:46.196Z,14.22
2023-03-21T20:24:16.753Z,14.21
2023-03-21T20:26:45.036Z,14.13
2023-03-21T20:30:03.899Z,14.03
2023-03-21T20:31:58.444Z,13.92
2023-03-21T20:34:24.917Z,13.82
2023-03-21T20:36:51.442Z,13.72
2023-03-21T20:39:17.950Z,13.61
2023-03-21T20:41:44.327Z,13.53
2023-03-21T20:46:57.483Z,13.40
2023-03-21T20:49:24.291Z,13.36
2023-03-21T20:52:49.429Z,13.34
2023-03-21T20:54:37.871Z,13.32
2023-03-21T20:57:05.043Z,13.30
2023-03-21T20:59:31.583Z,13.27
2023-03-21T21:01:58.514Z,13.23
2023-03-21T21:04:46.742Z,13.21
2023-03-21T21:07:17.249Z,13.18
2023-03-21T21:09:45.264Z,13.10
2023-03-21T21:12:13.630Z,13.06
2023-03-21T21:14:41.003Z,13.01
2023-03-21T21:19:54.353Z,12.91
2023-03-21T21:22:20.891Z,12.86
2023-03-21T21:24:47.264Z,12.81
2023-03-21T21:27:13.848Z,12.75
2023-03-21T21:29:43.149Z,12.71
2023-03-21T21:32:09.746Z,12.65
2023-03-21T21:34:37.055Z,12.61
2023-03-21T21:37:03.676Z,12.56
2023-03-21T21:39:35.865Z,12.53
2023-03-21T21:42:02.515Z,12.49
2023-03-21T21:44:28.914Z,12.45
2023-03-21T21:46:55.556Z,12.42
2023-03-21T21:49:21.935Z,12.40
2023-03-21T21:51:48.343Z,12.38
2023-03-21T21:54:18.010Z,12.37
2023-03-21T21:56:48.224Z,12.37
2023-03-21T21:59:18.283Z,12.37
2023-03-21T22:01:46.524Z,12.40
2023-03-21T22:04:14.220Z,12.40
2023-03-21T22:06:42.326Z,12.44
2023-03-21T22:09:09.456Z,12.47
2023-03-21T22:11:36.408Z,12.48
2023-03-21T22:14:03.651Z,12.50
2023-03-21T22:16:30.274Z,12.50
2023-03-21T22:18:56.704Z,12.50
2023-03-21T22:21:23.427Z,12.49
2023-03-21T22:23:49.890Z,12.47
2023-03-21T22:26:16.600Z,12.43
2023-03-21T22:28:43.627Z,12.41
2023-03-21T22:31:13.432Z,12.39
2023-03-21T22:33:39.949Z,12.38
2023-03-21T22:36:06.774Z,12.37
2023-03-21T22:38:34.602Z,12.39
2023-03-21T22:41:03.897Z,12.42
2023-03-21T22:43:33.994Z,12.45
2023-03-21T22:46:02.426Z,12.49
2023-03-21T22:48:30.136Z,12.53
2023-03-21T22:50:57.774Z,12.56
2023-03-21T22:53:24.833Z,12.59
2023-03-21T22:55:51.466Z,12.63
2023-03-21T22:58:18.204Z,12.67
2023-03-21T23:00:44.652Z,12.72
2023-03-21T23:03:12.869Z,12.76
2023-03-21T23:05:41.069Z,12.80
2023-03-21T23:08:07.662Z,12.83
2023-03-21T23:10:36.745Z,12.87
2023-03-21T23:13:03.812Z,12.89
2023-03-21T23:15:30.264Z,12.93
2023-03-21T23:17:56.648Z,12.94
2023-03-21T23:20:23.005Z,12.96
2023-03-21T23:22:49.328Z,12.99
2023-03-21T23:25:15.670Z,13.00
2023-03-21T23:27:42.411Z,12.99
2023-03-21T23:30:09.037Z,13.00
2023-03-21T23:32:35.410Z,12.99
2023-03-21T23:35:01.779Z,12.99
2023-03-21T23:37:29.952Z,12.97
2023-03-21T23:39:56.533Z,12.95
2023-03-21T23:42:23.738Z,12.92
2023-03-21T23:44:50.482Z,12.91
2023-03-21T23:47:17.180Z,12.91
2023-03-21T23:49:49.154Z,12.90
2023-03-21T23:52:16.108Z,12.89
2023-03-21T23:54:42.439Z,12.89
2023-03-21T23:57:08.834Z,12.88
2023-03-21T23:59:35.240Z,12.88
